Time;durP1;ratioP1;P1;durP2;ratioP2;P2;SDS_P1;SDS_P2;PMS_P1;PMS_P2;Temp;Humidity;BMP_temperature;BMP_pressure;BME280_temperature;BME280_humidity;BME280_pressure;Samples;Min_cycle;Max_cycle;Signal;HPM_P1;HPM_P2
2024/03/04 00:00:05;;;;;;;62.67;30.55;;;;;;;7.02;100.00;100654.50;5032313;28;20033;-72
2024/03/04 00:02:31;;;;;;;65.13;31.58;;;;;;;7.01;100.00;100658.22;5029374;28;20075;-73
2024/03/04 00:04:57;;;;;;;67.10;31.38;;;;;;;7.02;100.00;100659.84;5036166;28;20037;-75
2024/03/04 00:07:26;;;;;;;64.88;30.70;;;;;;;7.03;100.00;100669.44;5023266;28;20753;-72
2024/03/04 00:09:52;;;;;;;72.82;34.47;;;;;;;7.03;100.00;100664.09;5017887;28;20045;-73
2024/03/04 00:12:18;;;;;;;75.65;34.42;;;;;;;7.05;100.00;100670.81;5035770;28;20037;-73
2024/03/04 00:14:43;;;;;;;62.72;31.50;;;;;;;7.06;100.00;100667.09;5020885;28;20687;-77
2024/03/04 00:17:09;;;;;;;63.95;32.00;;;;;;;7.08;100.00;100670.31;5034905;28;20061;-75
2024/03/04 00:19:36;;;;;;;68.80;33.85;;;;;;;7.08;100.00;100674.81;5030528;28;20696;-72
2024/03/04 00:22:05;;;;;;;74.22;34.17;;;;;;;7.08;100.00;100680.16;5035370;28;20040;-74
2024/03/04 00:24:32;;;;;;;65.50;32.20;;;;;;;7.09;100.00;100682.56;5044350;28;20114;-73
2024/03/04 00:26:58;;;;;;;62.13;30.17;;;;;;;7.10;100.00;100684.16;5028974;28;20426;-72
2024/03/04 00:29:23;;;;;;;;;;;;;;;7.10;100.00;100678.84;5034546;28;20041;-73
2024/03/04 00:31:49;;;;;;;69.95;31.02;;;;;;;7.10;100.00;100684.16;5012954;28;19936;-73
2024/03/04 00:34:15;;;;;;;66.63;32.17;;;;;;;7.10;100.00;100683.38;5004794;28;20037;-74
2024/03/04 00:36:41;;;;;;;63.45;30.50;;;;;;;7.09;100.00;100679.91;5018043;28;20036;-76
2024/03/04 00:39:09;;;;;;;63.13;32.70;;;;;;;7.08;100.00;100680.16;5043420;28;20512;-75
2024/03/04 00:41:34;;;;;;;69.85;33.55;;;;;;;7.06;100.00;100676.94;5011245;28;20040;-73
2024/03/04 00:44:00;;;;;;;67.90;31.90;;;;;;;7.03;100.00;100672.09;5032880;28;20037;-73
2024/03/04 00:46:26;;;;;;;67.32;33.22;;;;;;;7.00;100.00;100678.72;5036278;28;20440;-73
2024/03/04 00:48:51;;;;;;;70.10;33.15;;;;;;;7.01;100.00;100682.19;5028125;28;20159;-73
2024/03/04 00:51:17;;;;;;;64.38;32.88;;;;;;;7.00;100.00;100685.91;5037909;28;20032;-73
2024/03/04 00:53:46;;;;;;;66.90;31.67;;;;;;;6.99;100.00;100690.44;5007639;28;20178;-75
2024/03/04 00:56:13;;;;;;;67.70;32.78;;;;;;;6.99;100.00;100687.78;5036795;28;20159;-74
2024/03/04 00:58:42;;;;;;;69.38;33.33;;;;;;;6.99;100.00;100694.97;5018361;28;20033;-72
2024/03/04 01:01:08;;;;;;;73.70;33.67;;;;;;;7.00;100.00;100691.25;5009118;28;20040;-73
2024/03/04 01:03:34;;;;;;;74.50;34.28;;;;;;;6.99;100.00;100686.97;5038012;28;20040;-73
2024/03/04 01:06:00;;;;;;;66.90;32.08;;;;;;;6.98;100.00;100685.38;5023988;28;20520;-72
2024/03/04 01:08:26;;;;;;;68.07;33.92;;;;;;;6.97;100.00;100684.53;5037877;28;20041;-74
2024/03/04 01:10:53;;;;;;;71.40;33.83;;;;;;;6.99;100.00;100692.28;5040386;28;20041;-73
2024/03/04 01:13:20;;;;;;;71.80;33.88;;;;;;;6.98;100.00;100691.50;5042644;28;20036;-73
2024/03/04 01:15:47;;;;;;;71.60;35.05;;;;;;;6.97;100.00;100684.53;5035424;28;20029;-75
2024/03/04 01:18:13;;;;;;;63.70;33.28;;;;;;;6.98;100.00;100696.81;5042178;28;20387;-73
2024/03/04 01:20:52;;;;;;;71.88;35.55;;;;;;;7.00;100.00;100693.91;5040208;28;20075;-73
2024/03/04 01:23:18;;;;;;;72.13;34.40;;;;;;;6.97;100.00;100695.19;5025959;28;20033;-72
2024/03/04 01:25:44;;;;;;;69.70;35.55;;;;;;;6.95;100.00;100699.16;5034640;28;20084;-75
2024/03/04 01:28:11;;;;;;;67.53;33.42;;;;;;;6.91;100.00;100695.34;5042342;28;20037;-72
2024/03/04 01:30:38;;;;;;;69.20;34.13;;;;;;;6.85;100.00;100691.84;5037819;28;20040;-72
2024/03/04 01:33:06;;;;;;;65.93;31.60;;;;;;;6.81;100.00;100691.53;5033210;28;20033;-75
2024/03/04 01:35:34;;;;;;;68.35;33.38;;;;;;;6.79;100.00;100695.50;5020516;28;20040;-72
2024/03/04 01:38:00;;;;;;;73.45;34.55;;;;;;;6.75;100.00;100689.84;5037323;28;20033;-74
2024/03/04 01:40:25;;;;;;;;;;;;;;;6.74;100.00;100695.41;5038368;28;20043;-73
2024/03/04 01:42:55;;;;;;;65.88;32.08;;;;;;;6.71;100.00;100691.41;5023421;28;19913;-74
2024/03/04 01:45:25;;;;;;;72.70;35.22;;;;;;;6.69;100.00;100696.13;5041548;28;20041;-73
2024/03/04 01:48:01;;;;;;;73.43;35.72;;;;;;;6.68;100.00;100699.84;5036860;28;20037;-75
2024/03/04 01:50:29;;;;;;;65.97;33.33;;;;;;;6.69;100.00;100698.78;5015701;28;20310;-74
2024/03/04 01:52:58;;;;;;;69.32;33.78;;;;;;;6.67;100.00;100695.59;5040436;28;20108;-73
2024/03/04 01:55:28;;;;;;;68.28;34.35;;;;;;;6.66;100.00;100699.28;5037326;28;20037;-72
2024/03/04 01:57:56;;;;;;;65.35;33.58;;;;;;;6.66;100.00;100707.28;5039364;28;20037;-73
2024/03/04 02:00:23;;;;;;;60.42;32.15;;;;;;;6.67;100.00;100700.91;5033712;28;20036;-73
2024/03/04 02:02:53;;;;;;;65.53;33.42;;;;;;;6.66;100.00;100693.97;5037684;28;20036;-74
2024/03/04 02:05:19;;;;;;;63.78;32.33;;;;;;;6.65;100.00;100703.00;5040638;28;20094;-73
2024/03/04 02:07:47;;;;;;;64.97;32.38;;;;;;;6.64;100.00;100701.41;5039443;28;20033;-75
2024/03/04 02:10:15;;;;;;;56.75;30.05;;;;;;;6.66;100.00;100706.47;5037069;28;20030;-73
2024/03/04 02:12:41;;;;;;;67.50;32.22;;;;;;;6.65;100.00;100707.53;5033959;28;20041;-73
2024/03/04 02:15:08;;;;;;;68.78;34.15;;;;;;;6.65;100.00;100707.53;5017478;28;20041;-74
2024/03/04 02:17:35;;;;;;;68.57;34.17;;;;;;;6.64;100.00;100712.06;5021086;28;20040;-74
2024/03/04 02:20:07;;;;;;;67.65;33.30;;;;;;;6.63;100.00;100718.41;5036313;28;20792;-74
2024/03/04 02:22:33;;;;;;;;;;;;;;;6.64;100.00;100717.38;5037927;28;20781;-73
2024/03/04 02:24:58;;;;;;;62.13;31.20;;;;;;;6.64;100.00;100712.06;5039838;28;19917;-72
2024/03/04 02:27:26;;;;;;;65.63;31.80;;;;;;;6.65;100.00;100711.00;5023556;28;20033;-74
2024/03/04 02:29:52;;;;;;;64.55;33.22;;;;;;;6.64;100.00;100712.06;5035302;28;20034;-72
2024/03/04 02:32:17;;;;;;;61.55;33.53;;;;;;;6.63;100.00;100705.09;5031337;28;20061;-73
2024/03/04 02:34:45;;;;;;;63.60;32.53;;;;;;;6.63;100.00;100709.59;5021576;28;20103;-72
2024/03/04 02:37:12;;;;;;;65.93;33.65;;;;;;;6.62;100.00;100721.31;5035311;28;20041;-73
2024/03/04 02:39:39;;;;;;;63.55;32.75;;;;;;;6.62;100.00;100721.31;5034998;28;20035;-73
2024/03/04 02:42:05;;;;;;;68.18;34.70;;;;;;;6.63;100.00;100723.72;5036022;28;20777;-72
2024/03/04 02:44:32;;;;;;;64.68;33.40;;;;;;;6.62;100.00;100716.00;5032924;28;20029;-72
2024/03/04 02:46:58;;;;;;;61.38;31.55;;;;;;;6.61;100.00;100717.84;5034575;28;20037;-75
2024/03/04 02:49:24;;;;;;;63.20;35.17;;;;;;;6.59;100.00;100727.94;5037859;28;20812;-72
2024/03/04 02:51:50;;;;;;;66.00;34.45;;;;;;;6.58;100.00;100726.31;5032054;28;20025;-73
2024/03/04 02:54:16;;;;;;;60.38;31.88;;;;;;;6.57;100.00;100724.72;5035216;28;20048;-72
2024/03/04 02:56:42;;;;;;;57.72;31.17;;;;;;;6.56;100.00;100720.44;5034673;28;20036;-73
2024/03/04 02:59:08;;;;;;;63.90;33.20;;;;;;;6.54;100.00;100722.53;5034636;28;20416;-73
2024/03/04 03:01:34;;;;;;;59.03;31.65;;;;;;;6.51;100.00;100718.50;5020888;28;20044;-72
2024/03/04 03:04:00;;;;;;;66.53;34.25;;;;;;;6.51;100.00;100729.16;5019547;28;20028;-72
2024/03/04 03:06:28;;;;;;;57.13;30.92;;;;;;;6.47;100.00;100714.72;5012759;28;20044;-73
2024/03/04 03:08:57;;;;;;;67.15;33.55;;;;;;;6.44;100.00;100720.53;5029488;28;20037;-73
2024/03/04 03:11:23;;;;;;;67.78;34.03;;;;;;;6.41;100.00;100723.66;5018990;28;20048;-72
2024/03/04 03:13:49;;;;;;;64.78;32.20;;;;;;;6.40;100.00;100715.94;5019405;28;20053;-72
2024/03/04 03:16:19;;;;;;;64.28;31.15;;;;;;;6.38;100.00;100720.69;5033866;28;20123;-74
2024/03/04 03:18:46;;;;;;;63.42;32.25;;;;;;;6.36;100.00;100722.75;5014762;28;20603;-72
2024/03/04 03:21:12;;;;;;;68.22;33.55;;;;;;;6.33;100.00;100713.44;5032918;28;20033;-72
2024/03/04 03:23:41;;;;;;;60.80;31.85;;;;;;;6.34;100.00;100722.22;5032339;28;20028;-72
2024/03/04 03:26:06;;;;;;;56.55;30.17;;;;;;;6.31;100.00;100722.72;5035655;28;20037;-72
2024/03/04 03:28:32;;;;;;;56.47;29.08;;;;;;;6.29;100.00;100726.38;5037226;28;20037;-74
2024/03/04 03:30:58;;;;;;;54.85;30.45;;;;;;;6.28;100.00;100730.09;5022368;28;20421;-72
2024/03/04 03:33:23;;;;;;;62.58;30.08;;;;;;;6.27;100.00;100728.50;5038259;28;20026;-71
2024/03/04 03:35:48;;;;;;;55.75;29.98;;;;;;;6.25;100.00;100735.91;5029412;28;20026;-71
2024/03/04 03:38:14;;;;;;;58.33;29.73;;;;;;;6.22;100.00;100740.91;5036251;28;20074;-72
2024/03/04 03:40:40;;;;;;;58.72;28.58;;;;;;;6.17;100.00;100728.34;5038615;28;20032;-72
2024/03/04 03:43:05;;;;;;;58.00;29.75;;;;;;;6.13;100.00;100735.16;5034623;28;20045;-72
2024/03/04 03:45:33;;;;;;;56.10;30.33;;;;;;;6.10;100.00;100743.63;5039187;28;20036;-72
2024/03/04 03:47:58;;;;;;;51.70;29.05;;;;;;;6.06;100.00;100739.84;5018996;28;20540;-72
2024/03/04 03:50:24;;;;;;;58.67;30.42;;;;;;;6.01;100.00;100743.19;5039717;28;20075;-73
2024/03/04 03:52:50;;;;;;;55.25;30.58;;;;;;;5.99;100.00;100741.84;5038291;28;20040;-72
2024/03/04 03:55:15;;;;;;;61.35;30.45;;;;;;;5.95;100.00;100752.13;5036464;28;20033;-72
2024/03/04 03:57:42;;;;;;;56.08;31.05;;;;;;;5.89;100.00;100747.75;5034001;28;20083;-73
2024/03/04 04:00:10;;;;;;;;;;;;;;;5.86;100.00;100755.41;5034304;28;20029;-72
2024/03/04 04:02:38;;;;;;;56.78;29.02;;;;;;;5.82;100.00;100763.00;5031041;28;19921;-71
2024/03/04 04:05:04;;;;;;;;;;;;;;;5.80;100.00;100772.28;5038319;28;20040;-72
2024/03/04 04:07:29;;;;;;;64.50;31.60;;;;;;;5.75;100.00;100767.66;5037827;28;19923;-72
2024/03/04 04:09:55;;;;;;;64.03;31.08;;;;;;;5.71;100.00;100780.63;5039083;28;20029;-71
2024/03/04 04:12:21;;;;;;;58.95;30.60;;;;;;;5.70;100.00;100784.34;5040797;28;20526;-72
2024/03/04 04:14:46;;;;;;;60.70;31.20;;;;;;;5.65;100.00;100784.22;5018566;28;20029;-72
2024/03/04 04:17:15;;;;;;;55.88;31.05;;;;;;;5.62;100.00;100783.88;5037339;28;20445;-73
2024/03/04 04:19:40;;;;;;;56.80;29.58;;;;;;;5.57;100.00;100789.91;5009706;28;20110;-72
2024/03/04 04:22:06;;;;;;;52.30;27.95;;;;;;;5.53;100.00;100796.75;5035193;28;20041;-73
2024/03/04 04:24:32;;;;;;;59.20;29.50;;;;;;;5.51;100.00;100796.16;5016157;28;20395;-73
2024/03/04 04:26:57;;;;;;;63.15;31.80;;;;;;;5.49;100.00;100790.28;5036133;28;20036;-72
2024/03/04 04:29:23;;;;;;;58.83;31.27;;;;;;;5.44;100.00;100790.19;5021481;28;20633;-72
2024/03/04 04:31:49;;;;;;;64.15;32.70;;;;;;;5.43;100.00;100797.34;5029703;28;20057;-73
2024/03/04 04:34:15;;;;;;;60.80;33.15;;;;;;;5.41;100.00;100793.28;5022162;28;20116;-72
2024/03/04 04:36:49;;;;;;;60.20;32.03;;;;;;;5.39;100.00;100800.69;5033207;28;20056;-72
2024/03/04 04:39:15;;;;;;;55.90;30.58;;;;;;;5.36;100.00;100803.81;5047011;28;20029;-72
2024/03/04 04:41:40;;;;;;;62.70;32.47;;;;;;;5.33;100.00;100812.25;5004826;28;20113;-72
2024/03/04 04:44:06;;;;;;;58.53;29.70;;;;;;;5.31;100.00;100806.38;5038009;28;20037;-72
2024/03/04 04:46:32;;;;;;;56.03;30.23;;;;;;;5.28;100.00;100809.47;5022231;28;20446;-72
2024/03/04 04:48:58;;;;;;;57.65;30.27;;;;;;;5.27;100.00;100818.47;5013945;28;20406;-72
2024/03/04 04:51:23;;;;;;;52.35;27.55;;;;;;;5.26;100.00;100819.53;5023713;28;20051;-72
2024/03/04 04:53:49;;;;;;;56.53;29.27;;;;;;;5.20;100.00;100819.41;5006758;28;20029;-71
2024/03/04 04:56:17;;;;;;;58.42;29.50;;;;;;;5.16;100.00;100834.19;5038024;28;20414;-72
2024/03/04 04:58:43;;;;;;;53.53;29.15;;;;;;;5.11;100.00;100835.94;5036104;28;20033;-72
2024/03/04 05:01:09;;;;;;;;;;;;;;;5.09;100.00;100833.50;5035380;28;20075;-72
2024/03/04 05:03:35;;;;;;;55.45;29.67;;;;;;;5.06;100.00;100823.34;5017234;28;19912;-72
2024/03/04 05:06:01;;;;;;;55.38;28.48;;;;;;;5.03;100.00;100817.69;5017705;28;20041;-72
2024/03/04 05:08:27;;;;;;;55.40;28.73;;;;;;;4.99;100.00;100827.94;4999016;28;20041;-72
2024/03/04 05:10:54;;;;;;;59.05;29.67;;;;;;;4.97;100.00;100830.03;5035485;28;20029;-72
2024/03/04 05:13:20;;;;;;;;;;;;;;;4.92;100.00;100833.38;5050447;28;20029;-72
2024/03/04 05:15:46;;;;;;;53.33;27.42;;;;;;;4.93;100.00;100836.84;5033159;28;19928;-72
2024/03/04 05:18:13;;;;;;;60.38;28.92;;;;;;;4.93;100.00;100844.78;5021256;28;20070;-72
2024/03/04 05:20:38;;;;;;;60.25;30.40;;;;;;;4.94;100.00;100838.44;5011937;28;20605;-72
2024/03/04 05:23:04;;;;;;;63.05;32.25;;;;;;;4.93;100.00;100842.13;5030257;28;20123;-73
2024/03/04 05:25:30;;;;;;;65.78;31.67;;;;;;;4.96;100.00;100843.53;5016946;28;20037;-71
2024/03/04 05:27:57;;;;;;;53.95;29.17;;;;;;;4.95;100.00;100845.41;5029496;28;20038;-72
2024/03/04 05:30:22;;;;;;;60.50;31.30;;;;;;;4.96;100.00;100851.50;5037982;28;20033;-72
2024/03/04 05:32:49;;;;;;;56.45;30.25;;;;;;;4.93;100.00;100839.50;5030935;28;20577;-72
2024/03/04 05:35:14;;;;;;;63.63;30.42;;;;;;;4.93;100.00;100850.09;5037934;28;20358;-74
2024/03/04 05:37:41;;;;;;;59.17;31.20;;;;;;;4.92;100.00;100848.50;5022821;28;20630;-72
2024/03/04 05:40:10;;;;;;;63.20;32.33;;;;;;;4.89;100.00;100854.28;5026652;28;20497;-72
2024/03/04 05:42:39;;;;;;;64.80;33.30;;;;;;;4.90;100.00;100855.88;5040998;28;20569;-72
2024/03/04 05:45:12;;;;;;;58.22;31.73;;;;;;;4.90;100.00;100858.53;5010636;28;20042;-73
2024/03/04 05:47:39;;;;;;;64.22;33.25;;;;;;;4.90;100.00;100853.22;5020161;28;20052;-72
2024/03/04 05:50:05;;;;;;;65.82;33.25;;;;;;;4.92;100.00;100867.06;5034199;28;20214;-72
2024/03/04 05:52:31;;;;;;;;;;;;;;;4.92;100.00;100861.75;5026434;28;20029;-72
2024/03/04 05:54:57;;;;;;;59.13;29.80;;;;;;;4.90;100.00;100880.56;5040078;28;19939;-72
2024/03/04 05:57:22;;;;;;;54.15;28.50;;;;;;;4.87;100.00;100870.41;5040560;28;20533;-72
2024/03/04 05:59:48;;;;;;;56.70;29.48;;;;;;;4.85;100.00;100884.94;5043207;28;20029;-71
2024/03/04 06:02:14;;;;;;;51.95;27.95;;;;;;;4.83;100.00;100887.81;5019652;28;20477;-72
2024/03/04 06:04:40;;;;;;;53.35;28.77;;;;;;;4.82;100.00;100888.06;5040113;28;20041;-71
2024/03/04 06:07:05;;;;;;;55.08;28.42;;;;;;;4.80;100.00;100887.47;5033325;28;20037;-72
2024/03/04 06:09:31;;;;;;;57.88;29.73;;;;;;;4.78;100.00;100897.50;5040477;28;20112;-72
2024/03/04 06:11:57;;;;;;;62.95;31.90;;;;;;;4.77;100.00;100903.84;5035523;28;20044;-73
2024/03/04 06:14:23;;;;;;;57.80;29.75;;;;;;;4.74;100.00;100897.16;5007340;28;20033;-73
2024/03/04 06:16:49;;;;;;;52.03;28.20;;;;;;;4.73;100.00;100905.31;5020075;28;20041;-73
2024/03/04 06:19:15;;;;;;;59.90;32.53;;;;;;;4.69;100.00;100904.19;5034434;28;20079;-73
2024/03/04 06:21:42;;;;;;;55.30;30.23;;;;;;;4.67;100.00;100901.72;5031881;28;20114;-74
2024/03/04 06:24:08;;;;;;;59.88;31.15;;;;;;;4.68;100.00;100913.19;5034275;28;20036;-73
2024/03/04 06:26:34;;;;;;;67.63;33.75;;;;;;;4.70;100.00;100919.88;5031619;28;20042;-73
2024/03/04 06:29:00;;;;;;;59.83;31.35;;;;;;;4.73;100.00;100924.72;5020482;28;20034;-73
2024/03/04 06:31:26;;;;;;;62.28;32.55;;;;;;;4.76;100.00;100924.28;5039022;28;20556;-73
2024/03/04 06:33:53;;;;;;;65.68;33.00;;;;;;;4.78;100.00;100934.66;5010818;28;20052;-73
2024/03/04 06:36:19;;;;;;;76.90;34.30;;;;;;;4.82;100.00;100935.81;5021145;28;20036;-73
2024/03/04 06:38:45;;;;;;;71.85;34.35;;;;;;;4.85;100.00;100936.16;5039137;28;20041;-73
2024/03/04 06:41:11;;;;;;;62.40;30.40;;;;;;;4.90;100.00;100946.13;5038552;28;20040;-73
2024/03/04 06:43:36;;;;;;;87.75;37.78;;;;;;;4.93;100.00;100950.94;5036530;28;20040;-73
2024/03/04 06:46:03;;;;;;;75.95;35.78;;;;;;;4.96;100.00;100941.75;5032654;28;20735;-73
2024/03/04 06:48:28;;;;;;;83.53;37.72;;;;;;;5.00;100.00;100946.34;5037779;28;20041;-73
2024/03/04 06:50:54;;;;;;;78.18;35.38;;;;;;;5.03;100.00;100945.91;5007163;28;20052;-73
2024/03/04 06:53:20;;;;;;;79.35;35.50;;;;;;;5.05;100.00;100938.53;5041908;28;20056;-73
2024/03/04 06:55:45;;;;;;;79.18;34.08;;;;;;;5.05;100.00;100941.19;5041244;28;20036;-73
2024/03/04 06:58:11;;;;;;;95.38;38.40;;;;;;;5.06;100.00;100949.94;5056989;28;20894;-73
2024/03/04 07:00:37;;;;;;;107.22;37.05;;;;;;;5.07;100.00;100947.06;5038780;28;20040;-73
2024/03/04 07:03:04;;;;;;;81.30;36.08;;;;;;;5.08;100.00;100956.66;5038208;28;20036;-73
2024/03/04 07:05:31;;;;;;;79.85;36.25;;;;;;;5.12;100.00;100954.34;5039193;28;20083;-73
2024/03/04 07:07:56;;;;;;;88.38;37.72;;;;;;;5.15;100.00;100960.03;5024583;28;20047;-73
2024/03/04 07:10:22;;;;;;;84.68;37.22;;;;;;;5.20;100.00;100957.47;5010016;28;20109;-73
2024/03/04 07:12:48;;;;;;;;;;;;;;;5.24;100.00;100962.34;5035298;28;20064;-73
2024/03/04 07:15:14;;;;;;;88.88;37.65;;;;;;;5.25;100.00;100948.03;5034399;28;20709;-73
2024/03/04 07:17:40;;;;;;;90.82;36.30;;;;;;;5.29;100.00;100962.47;5036498;28;20033;-72
2024/03/04 07:20:10;;;;;;;95.28;35.75;;;;;;;5.28;100.00;100958.97;5022529;28;20119;-71
2024/03/04 07:22:36;;;;;;;87.28;37.83;;;;;;;5.32;100.00;100954.84;5036687;28;20040;-72
2024/03/04 07:25:03;;;;;;;96.47;38.10;;;;;;;5.32;100.00;100946.88;5035086;28;20575;-73
2024/03/04 07:27:28;;;;;;;112.13;39.20;;;;;;;5.37;100.00;100948.84;5021903;28;20033;-73
2024/03/04 07:29:54;;;;;;;94.30;37.90;;;;;;;5.38;100.00;100938.00;5037064;28;20036;-73
2024/03/04 07:32:20;;;;;;;86.63;35.80;;;;;;;5.43;100.00;100943.44;5020328;28;20482;-73
2024/03/04 07:34:45;;;;;;;111.75;40.10;;;;;;;5.47;100.00;100946.41;5038420;28;20044;-73
2024/03/04 07:37:11;;;;;;;94.45;40.13;;;;;;;5.47;100.00;100949.88;5037368;28;20513;-73
2024/03/04 07:39:36;;;;;;;99.18;36.90;;;;;;;5.50;100.00;100956.59;5041194;28;20032;-72
2024/03/04 07:42:02;;;;;;;95.15;39.58;;;;;;;5.55;100.00;100954.03;5036828;28;20033;-72
2024/03/04 07:44:28;;;;;;;85.75;35.53;;;;;;;5.59;100.00;100959.72;5020440;28;20037;-72
2024/03/04 07:46:53;;;;;;;90.70;38.13;;;;;;;5.60;100.00;100966.63;5021133;28;20060;-72
2024/03/04 07:49:19;;;;;;;77.03;34.85;;;;;;;5.65;100.00;100964.91;5036987;28;20032;-72
2024/03/04 07:51:44;;;;;;;73.60;33.40;;;;;;;5.73;100.00;100961.09;5035578;28;20078;-73
2024/03/04 07:54:10;;;;;;;77.25;35.50;;;;;;;5.80;100.00;100971.59;5036594;28;20052;-74
2024/03/04 07:56:36;;;;;;;82.32;36.88;;;;;;;5.84;100.00;100978.09;5023700;28;20251;-72
2024/03/04 07:59:02;;;;;;;68.57;33.58;;;;;;;5.89;100.00;100988.81;5015305;28;20512;-71
2024/03/04 08:01:27;;;;;;;79.43;35.38;;;;;;;5.94;100.00;100991.63;5032118;28;20047;-72
2024/03/04 08:03:53;;;;;;;81.68;35.92;;;;;;;5.96;100.00;100993.03;5033670;28;20425;-72
2024/03/04 08:06:20;;;;;;;87.22;36.60;;;;;;;5.99;100.00;100995.19;5022110;28;20033;-73
2024/03/04 08:08:48;;;;;;;81.80;36.45;;;;;;;6.02;100.00;101000.03;5007995;28;20068;-73
2024/03/04 08:11:14;;;;;;;77.18;34.60;;;;;;;6.07;100.00;100998.53;5019255;28;20033;-73
2024/03/04 08:13:40;;;;;;;75.22;35.65;;;;;;;6.10;100.00;100998.91;5011568;28;20116;-72
2024/03/04 08:16:06;;;;;;;79.13;36.53;;;;;;;6.13;100.00;100998.41;5031614;28;20164;-73
2024/03/04 08:18:31;;;;;;;81.60;35.97;;;;;;;6.17;100.00;101001.44;5039680;28;20465;-73
2024/03/04 08:20:57;;;;;;;74.72;35.22;;;;;;;6.17;100.00;100993.47;5039930;28;20048;-73
2024/03/04 08:23:23;;;;;;;78.22;35.85;;;;;;;6.19;100.00;101000.16;5017354;28;20036;-72
2024/03/04 08:25:49;;;;;;;76.85;34.60;;;;;;;6.24;100.00;101007.44;5016625;28;20033;-72
2024/03/04 08:28:14;;;;;;;73.03;34.45;;;;;;;6.28;100.00;101003.25;5036481;28;20100;-72
2024/03/04 08:30:40;;;;;;;80.88;36.90;;;;;;;6.33;100.00;101013.19;5020571;28;20037;-71
2024/03/04 08:33:05;;;;;;;67.10;34.42;;;;;;;6.35;100.00;101016.41;5039159;28;20040;-72
2024/03/04 08:35:31;;;;;;;71.25;36.00;;;;;;;6.40;100.00;101019.19;5021088;28;20029;-71
2024/03/04 08:37:57;;;;;;;75.60;35.28;;;;;;;6.43;100.00;101018.72;5028874;28;20045;-72
2024/03/04 08:40:25;;;;;;;79.70;36.92;;;;;;;6.46;100.00;101018.25;5013744;28;20048;-74
2024/03/04 08:42:51;;;;;;;79.00;36.38;;;;;;;6.49;100.00;101021.22;5036038;28;20090;-72
2024/03/04 08:45:17;;;;;;;78.43;38.10;;;;;;;6.50;100.00;101016.72;5034983;28;20058;-73
2024/03/04 08:47:43;;;;;;;74.38;35.40;;;;;;;6.55;100.00;101030.13;5041079;28;20044;-71
2024/03/04 08:50:08;;;;;;;72.85;35.30;;;;;;;6.61;100.00;101026.53;5020531;28;20538;-71
2024/03/04 08:52:35;;;;;;;76.45;36.00;;;;;;;6.69;100.00;101028.00;5033961;28;20402;-71
2024/03/04 08:55:00;;;;;;;69.05;34.40;;;;;;;6.70;100.00;101035.75;5018925;28;20029;-71
2024/03/04 08:57:26;;;;;;;68.50;34.25;;;;;;;6.78;100.00;101043.38;5015417;28;20071;-72
2024/03/04 08:59:52;;;;;;;67.57;33.90;;;;;;;6.80;100.00;101041.28;5038968;28;20116;-72
2024/03/04 09:02:18;;;;;;;69.88;36.05;;;;;;;6.87;100.00;101040.34;5033317;28;20041;-71
2024/03/04 09:04:47;;;;;;;74.30;35.17;;;;;;;6.95;100.00;101037.28;5019634;28;20045;-72
2024/03/04 09:07:14;;;;;;;69.85;34.88;;;;;;;6.95;100.00;101039.97;5021743;28;20033;-71
2024/03/04 09:09:40;;;;;;;69.53;35.03;;;;;;;6.91;100.00;101030.81;5039309;28;20035;-73
2024/03/04 09:12:08;;;;;;;74.28;35.03;;;;;;;6.95;100.00;101037.28;5035803;28;20756;-73
2024/03/04 09:14:34;;;;;;;73.07;36.08;;;;;;;6.95;100.00;101039.97;5021041;28;20033;-73
2024/03/04 09:17:00;;;;;;;69.05;34.75;;;;;;;6.99;100.00;101033.13;5035597;28;20087;-73
2024/03/04 09:19:25;;;;;;;70.07;34.10;;;;;;;7.06;100.00;101031.13;5043369;28;20029;-73
2024/03/04 09:21:52;;;;;;;69.03;34.67;;;;;;;7.12;100.00;101038.16;5041221;28;20110;-73
2024/03/04 09:24:17;;;;;;;65.57;33.13;;;;;;;7.16;100.00;101044.59;5033550;28;20565;-72
2024/03/04 09:26:46;;;;;;;71.00;34.30;;;;;;;7.25;100.00;101037.84;5042086;28;20033;-73
2024/03/04 09:29:12;;;;;;;70.43;35.63;;;;;;;7.30;100.00;101043.25;5043030;28;20036;-73
2024/03/04 09:31:42;;;;;;;67.95;33.15;;;;;;;7.35;100.00;101047.88;5017983;28;20030;-73
2024/03/04 09:34:07;;;;;;;63.00;34.38;;;;;;;7.27;100.00;101038.41;5040640;28;20132;-74
2024/03/04 09:36:33;;;;;;;62.35;33.28;;;;;;;7.29;100.00;101038.16;5024156;28;20131;-73
2024/03/04 09:38:59;;;;;;;64.05;30.88;;;;;;;7.29;100.00;101041.63;5041174;28;20136;-74
2024/03/04 09:41:25;;;;;;;60.38;32.08;;;;;;;7.30;100.00;101045.91;5037144;28;20040;-74
2024/03/04 09:43:52;;;;;;;63.58;31.70;;;;;;;7.29;100.00;101044.31;5005332;28;20483;-74
2024/03/04 09:46:19;;;;;;;64.38;32.55;;;;;;;7.33;100.00;101044.66;5036248;28;20029;-73
2024/03/04 09:48:47;;;;;;;68.55;34.22;;;;;;;7.41;100.00;101052.25;5022694;28;20045;-73
2024/03/04 09:51:15;;;;;;;64.93;34.05;;;;;;;7.36;100.00;101058.28;5020925;28;20509;-73
2024/03/04 09:53:42;;;;;;;65.43;33.72;;;;;;;7.39;100.00;101057.81;5039617;28;20086;-73
2024/03/04 09:56:08;;;;;;;71.35;34.95;;;;;;;7.43;100.00;101067.97;5015791;28;20039;-72
2024/03/04 09:58:34;;;;;;;69.72;34.80;;;;;;;7.44;100.00;101066.94;5043808;28;20090;-72
2024/03/04 10:01:01;;;;;;;68.90;33.95;;;;;;;7.46;100.00;101064.84;5032871;28;20055;-72
2024/03/04 10:03:30;;;;;;;67.25;33.83;;;;;;;7.54;100.00;101059.94;5037076;28;20077;-73
2024/03/04 10:05:56;;;;;;;68.55;32.97;;;;;;;7.69;100.00;101064.69;5036348;28;20039;-72
2024/03/04 10:08:24;;;;;;;68.40;35.67;;;;;;;7.81;100.00;101070.75;5022761;28;20041;-73
2024/03/04 10:10:50;;;;;;;68.97;35.10;;;;;;;7.89;100.00;101064.19;5035403;28;20029;-73
2024/03/04 10:13:16;;;;;;;65.68;34.05;;;;;;;7.98;100.00;101072.59;5037995;28;20036;-73
2024/03/04 10:15:45;;;;;;;68.03;34.63;;;;;;;8.06;100.00;101064.16;5035470;28;20083;-74
2024/03/04 10:18:12;;;;;;;65.88;35.00;;;;;;;8.04;100.00;101063.63;5040311;28;20036;-72
2024/03/04 10:20:38;;;;;;;64.95;33.38;;;;;;;8.05;100.00;101067.91;5036730;28;20033;-72
2024/03/04 10:23:05;;;;;;;66.18;34.33;;;;;;;8.18;100.00;101072.88;5033170;28;20041;-71
2024/03/04 10:25:31;;;;;;;67.18;34.92;;;;;;;8.29;100.00;101069.31;5037494;28;20025;-72
2024/03/04 10:27:56;;;;;;;66.22;33.53;;;;;;;8.45;100.00;101068.50;5029246;28;20489;-73
2024/03/04 10:30:24;;;;;;;62.42;34.20;;;;;;;8.42;100.00;101061.00;5033720;28;20516;-73
2024/03/04 10:32:52;;;;;;;60.75;32.47;;;;;;;8.42;100.00;101057.50;5024909;28;20033;-73
2024/03/04 10:35:19;;;;;;;66.95;35.20;;;;;;;8.43;100.00;101067.94;5038516;28;20111;-73
2024/03/04 10:37:48;;;;;;;62.10;34.58;;;;;;;8.49;100.00;101071.47;5013174;28;20075;-73
2024/03/04 10:40:18;;;;;;;55.95;31.15;;;;;;;8.54;100.00;101065.41;5017731;28;20029;-73
2024/03/04 10:42:46;;;;;;;58.53;32.83;;;;;;;8.61;100.00;101063.38;5056842;28;20474;-73
2024/03/04 10:45:13;;;;;;;61.63;32.83;;;;;;;8.54;100.00;101068.09;5038475;28;20041;-74
2024/03/04 10:47:41;;;;;;;56.10;31.98;;;;;;;8.58;100.00;101055.84;5037795;28;20039;-73
2024/03/04 10:50:08;;;;;;;61.00;33.10;;;;;;;8.63;100.00;101069.25;5038712;28;20044;-74
2024/03/04 10:52:34;;;;;;;56.40;32.00;;;;;;;8.73;100.00;101064.03;5017035;28;20037;-71
2024/03/04 10:55:00;;;;;;;56.55;31.75;;;;;;;8.81;100.00;101066.28;5030732;28;20498;-71
2024/03/04 10:57:28;;;;;;;59.08;33.05;;;;;;;8.86;100.00;101068.97;5035111;28;20036;-72
2024/03/04 10:59:56;;;;;;;55.17;31.88;;;;;;;8.93;100.00;101069.59;5035694;28;20835;-72
2024/03/04 11:02:53;;;;;;;54.65;31.35;;;;;;;9.01;100.00;101063.84;5031136;28;20080;-72
2024/03/04 11:05:22;;;;;;;65.07;35.20;;;;;;;9.08;100.00;101060.97;5023199;28;20037;-73
2024/03/04 11:07:49;;;;;;;67.72;34.92;;;;;;;9.10;100.00;101058.03;5032778;28;20545;-72